sensor_id;sensor_type;location;lat;lon;timestamp;P1;durP1;ratioP1;P2;durP2;ratioP2
38853;SDS011;24606;51.992;4.198;2022-09-09T00:04:35;5.97;;;1.55;;
38853;SDS011;24606;51.992;4.198;2022-09-09T00:09:40;2.72;;;1.42;;
38853;SDS011;24606;51.992;4.198;2022-09-09T00:14:50;4.90;;;2.03;;
38853;SDS011;24606;51.992;4.198;2022-09-09T00:19:56;2.25;;;1.52;;
38853;SDS011;24606;51.992;4.198;2022-09-09T00:25:06;3.80;;;2.20;;
38853;SDS011;24606;51.992;4.198;2022-09-09T00:30:14;2.97;;;1.60;;
38853;SDS011;24606;51.992;4.198;2022-09-09T00:35:21;3.28;;;1.70;;
38853;SDS011;24606;51.992;4.198;2022-09-09T00:40:29;3.75;;;1.98;;
38853;SDS011;24606;51.992;4.198;2022-09-09T00:45:38;3.50;;;1.60;;
38853;SDS011;24606;51.992;4.198;2022-09-09T00:50:55;4.90;;;1.85;;
38853;SDS011;24606;51.992;4.198;2022-09-09T00:56:05;5.82;;;2.30;;
38853;SDS011;24606;51.992;4.198;2022-09-09T01:01:12;3.72;;;1.88;;
38853;SDS011;24606;51.992;4.198;2022-09-09T01:06:16;4.22;;;2.03;;
38853;SDS011;24606;51.992;4.198;2022-09-09T01:11:25;2.78;;;1.73;;
38853;SDS011;24606;51.992;4.198;2022-09-09T01:16:33;3.60;;;1.55;;
38853;SDS011;24606;51.992;4.198;2022-09-09T01:21:38;5.40;;;1.70;;
38853;SDS011;24606;51.992;4.198;2022-09-09T01:26:51;3.88;;;2.20;;
38853;SDS011;24606;51.992;4.198;2022-09-09T01:31:56;4.13;;;2.28;;
38853;SDS011;24606;51.992;4.198;2022-09-09T01:37:01;2.85;;;1.63;;
38853;SDS011;24606;51.992;4.198;2022-09-09T01:42:07;4.18;;;1.65;;
38853;SDS011;24606;51.992;4.198;2022-09-09T01:47:13;1.70;;;1.30;;
38853;SDS011;24606;51.992;4.198;2022-09-09T01:52:16;3.13;;;1.73;;
38853;SDS011;24606;51.992;4.198;2022-09-09T01:57:20;4.38;;;1.88;;
38853;SDS011;24606;51.992;4.198;2022-09-09T02:02:26;5.38;;;1.73;;
38853;SDS011;24606;51.992;4.198;2022-09-09T02:07:35;3.03;;;1.30;;
38853;SDS011;24606;51.992;4.198;2022-09-09T02:12:43;4.60;;;1.35;;
38853;SDS011;24606;51.992;4.198;2022-09-09T02:17:48;3.17;;;1.23;;
38853;SDS011;24606;51.992;4.198;2022-09-09T02:22:53;3.47;;;1.48;;
38853;SDS011;24606;51.992;4.198;2022-09-09T02:27:58;2.15;;;1.20;;
38853;SDS011;24606;51.992;4.198;2022-09-09T02:33:00;3.20;;;1.42;;
38853;SDS011;24606;51.992;4.198;2022-09-09T02:38:07;2.10;;;1.33;;
38853;SDS011;24606;51.992;4.198;2022-09-09T02:43:15;2.65;;;1.40;;
38853;SDS011;24606;51.992;4.198;2022-09-09T02:48:18;3.83;;;1.23;;
38853;SDS011;24606;51.992;4.198;2022-09-09T02:53:29;4.13;;;1.35;;
38853;SDS011;24606;51.992;4.198;2022-09-09T02:58:38;2.25;;;1.20;;
38853;SDS011;24606;51.992;4.198;2022-09-09T03:03:41;3.47;;;1.30;;
38853;SDS011;24606;51.992;4.198;2022-09-09T03:08:44;4.13;;;1.30;;
38853;SDS011;24606;51.992;4.198;2022-09-09T03:13:47;3.05;;;1.17;;
38853;SDS011;24606;51.992;4.198;2022-09-09T03:18:50;2.13;;;1.05;;
38853;SDS011;24606;51.992;4.198;2022-09-09T03:23:52;2.28;;;1.00;;
38853;SDS011;24606;51.992;4.198;2022-09-09T03:28:55;2.47;;;0.82;;
38853;SDS011;24606;51.992;4.198;2022-09-09T03:33:57;1.30;;;0.70;;
38853;SDS011;24606;51.992;4.198;2022-09-09T03:38:59;1.50;;;0.82;;
38853;SDS011;24606;51.992;4.198;2022-09-09T03:44:04;2.28;;;0.98;;
38853;SDS011;24606;51.992;4.198;2022-09-09T03:49:06;1.42;;;0.95;;
38853;SDS011;24606;51.992;4.198;2022-09-09T03:54:09;1.58;;;0.93;;
38853;SDS011;24606;51.992;4.198;2022-09-09T04:04:14;1.95;;;1.05;;
38853;SDS011;24606;51.992;4.198;2022-09-09T04:09:16;2.05;;;1.00;;
38853;SDS011;24606;51.992;4.198;2022-09-09T04:14:20;4.55;;;1.70;;
38853;SDS011;24606;51.992;4.198;2022-09-09T04:19:22;2.13;;;0.73;;
38853;SDS011;24606;51.992;4.198;2022-09-09T04:29:30;2.70;;;1.10;;
38853;SDS011;24606;51.992;4.198;2022-09-09T04:34:32;4.72;;;0.80;;
38853;SDS011;24606;51.992;4.198;2022-09-09T04:39:34;1.40;;;0.57;;
38853;SDS011;24606;51.992;4.198;2022-09-09T04:49:39;3.13;;;0.70;;
38853;SDS011;24606;51.992;4.198;2022-09-09T04:59:44;2.35;;;0.85;;
38853;SDS011;24606;51.992;4.198;2022-09-09T05:04:46;3.08;;;1.00;;
38853;SDS011;24606;51.992;4.198;2022-09-09T05:09:49;4.25;;;2.13;;
38853;SDS011;24606;51.992;4.198;2022-09-09T05:19:54;6.18;;;1.58;;
38853;SDS011;24606;51.992;4.198;2022-09-09T05:24:56;3.00;;;1.38;;
38853;SDS011;24606;51.992;4.198;2022-09-09T05:29:59;3.47;;;2.17;;
38853;SDS011;24606;51.992;4.198;2022-09-09T05:35:01;5.50;;;1.50;;
38853;SDS011;24606;51.992;4.198;2022-09-09T05:40:04;5.55;;;1.30;;
38853;SDS011;24606;51.992;4.198;2022-09-09T05:45:08;4.30;;;1.35;;
38853;SDS011;24606;51.992;4.198;2022-09-09T05:50:11;4.50;;;1.80;;
38853;SDS011;24606;51.992;4.198;2022-09-09T05:55:14;4.13;;;1.33;;
38853;SDS011;24606;51.992;4.198;2022-09-09T06:05:20;4.10;;;1.80;;
38853;SDS011;24606;51.992;4.198;2022-09-09T06:10:22;4.40;;;1.60;;
38853;SDS011;24606;51.992;4.198;2022-09-09T06:15:26;5.50;;;2.15;;
38853;SDS011;24606;51.992;4.198;2022-09-09T06:20:30;2.88;;;1.50;;
38853;SDS011;24606;51.992;4.198;2022-09-09T06:25:32;6.32;;;2.35;;
38853;SDS011;24606;51.992;4.198;2022-09-09T06:30:35;4.50;;;2.00;;
38853;SDS011;24606;51.992;4.198;2022-09-09T06:35:37;5.40;;;2.63;;
38853;SDS011;24606;51.992;4.198;2022-09-09T06:45:42;6.43;;;2.10;;
38853;SDS011;24606;51.992;4.198;2022-09-09T06:50:45;3.42;;;1.67;;
38853;SDS011;24606;51.992;4.198;2022-09-09T06:55:47;5.00;;;2.17;;
38853;SDS011;24606;51.992;4.198;2022-09-09T07:05:56;4.05;;;1.98;;
38853;SDS011;24606;51.992;4.198;2022-09-09T07:11:02;5.20;;;2.20;;
38853;SDS011;24606;51.992;4.198;2022-09-09T07:16:08;4.85;;;1.52;;
38853;SDS011;24606;51.992;4.198;2022-09-09T07:21:13;5.13;;;1.55;;
38853;SDS011;24606;51.992;4.198;2022-09-09T07:26:16;5.03;;;1.50;;
38853;SDS011;24606;51.992;4.198;2022-09-09T07:31:22;9.80;;;2.00;;
38853;SDS011;24606;51.992;4.198;2022-09-09T07:36:25;8.27;;;1.55;;
38853;SDS011;24606;51.992;4.198;2022-09-09T07:41:29;3.67;;;2.00;;
38853;SDS011;24606;51.992;4.198;2022-09-09T07:46:35;4.88;;;1.40;;
38853;SDS011;24606;51.992;4.198;2022-09-09T07:51:40;3.83;;;1.95;;
38853;SDS011;24606;51.992;4.198;2022-09-09T07:56:44;3.63;;;1.80;;
38853;SDS011;24606;51.992;4.198;2022-09-09T08:01:48;5.15;;;1.90;;
38853;SDS011;24606;51.992;4.198;2022-09-09T08:06:54;4.18;;;1.60;;
38853;SDS011;24606;51.992;4.198;2022-09-09T08:11:58;4.68;;;1.88;;
38853;SDS011;24606;51.992;4.198;2022-09-09T08:17:02;3.80;;;1.92;;
38853;SDS011;24606;51.992;4.198;2022-09-09T08:22:04;3.78;;;1.58;;
38853;SDS011;24606;51.992;4.198;2022-09-09T08:27:06;9.00;;;2.47;;
38853;SDS011;24606;51.992;4.198;2022-09-09T08:32:11;2.33;;;1.17;;
38853;SDS011;24606;51.992;4.198;2022-09-09T08:37:14;5.60;;;1.55;;
38853;SDS011;24606;51.992;4.198;2022-09-09T08:47:39;6.72;;;2.20;;
38853;SDS011;24606;51.992;4.198;2022-09-09T08:52:53;5.45;;;1.30;;
38853;SDS011;24606;51.992;4.198;2022-09-09T08:58:11;4.32;;;1.60;;
38853;SDS011;24606;51.992;4.198;2022-09-09T09:03:18;3.90;;;1.40;;
38853;SDS011;24606;51.992;4.198;2022-09-09T09:08:29;6.82;;;1.65;;
38853;SDS011;24606;51.992;4.198;2022-09-09T09:13:38;4.35;;;1.55;;
38853;SDS011;24606;51.992;4.198;2022-09-09T09:18:46;2.65;;;1.40;;
38853;SDS011;24606;51.992;4.198;2022-09-09T09:23:49;4.35;;;1.60;;
38853;SDS011;24606;51.992;4.198;2022-09-09T09:34:07;5.43;;;1.52;;
38853;SDS011;24606;51.992;4.198;2022-09-09T09:39:21;4.40;;;1.27;;
38853;SDS011;24606;51.992;4.198;2022-09-09T09:44:25;2.15;;;1.00;;
38853;SDS011;24606;51.992;4.198;2022-09-09T09:49:30;3.60;;;0.90;;
38853;SDS011;24606;51.992;4.198;2022-09-09T09:54:32;2.63;;;1.15;;
38853;SDS011;24606;51.992;4.198;2022-09-09T09:59:38;3.88;;;1.15;;
38853;SDS011;24606;51.992;4.198;2022-09-09T10:04:42;3.10;;;1.40;;
38853;SDS011;24606;51.992;4.198;2022-09-09T10:09:45;6.38;;;1.65;;
38853;SDS011;24606;51.992;4.198;2022-09-09T10:14:52;3.95;;;1.58;;
38853;SDS011;24606;51.992;4.198;2022-09-09T10:20:11;3.13;;;0.90;;
38853;SDS011;24606;51.992;4.198;2022-09-09T10:25:31;2.20;;;1.08;;
38853;SDS011;24606;51.992;4.198;2022-09-09T10:30:46;3.25;;;1.00;;
38853;SDS011;24606;51.992;4.198;2022-09-09T10:36:00;3.65;;;0.80;;
38853;SDS011;24606;51.992;4.198;2022-09-09T10:41:13;2.88;;;0.98;;
38853;SDS011;24606;51.992;4.198;2022-09-09T10:46:21;3.60;;;1.20;;
38853;SDS011;24606;51.992;4.198;2022-09-09T10:51:33;3.25;;;1.02;;
38853;SDS011;24606;51.992;4.198;2022-09-09T10:56:42;5.55;;;1.13;;
38853;SDS011;24606;51.992;4.198;2022-09-09T11:01:50;4.45;;;1.30;;
38853;SDS011;24606;51.992;4.198;2022-09-09T11:06:58;2.15;;;0.82;;
38853;SDS011;24606;51.992;4.198;2022-09-09T11:12:06;4.10;;;1.00;;
38853;SDS011;24606;51.992;4.198;2022-09-09T11:17:16;2.30;;;0.88;;
38853;SDS011;24606;51.992;4.198;2022-09-09T11:22:26;7.68;;;1.55;;
38853;SDS011;24606;51.992;4.198;2022-09-09T11:27:31;6.45;;;1.40;;
38853;SDS011;24606;51.992;4.198;2022-09-09T11:32:59;2.53;;;0.80;;
38853;SDS011;24606;51.992;4.198;2022-09-09T11:38:18;3.92;;;0.88;;
38853;SDS011;24606;51.992;4.198;2022-09-09T11:43:23;1.70;;;0.80;;
38853;SDS011;24606;51.992;4.198;2022-09-09T11:48:37;3.85;;;1.30;;
38853;SDS011;24606;51.992;4.198;2022-09-09T11:53:52;1.48;;;0.70;;
38853;SDS011;24606;51.992;4.198;2022-09-09T11:58:55;2.97;;;0.80;;
38853;SDS011;24606;51.992;4.198;2022-09-09T12:09:45;3.28;;;0.80;;
38853;SDS011;24606;51.992;4.198;2022-09-09T12:14:55;3.63;;;0.90;;
38853;SDS011;24606;51.992;4.198;2022-09-09T12:20:09;4.60;;;1.10;;
38853;SDS011;24606;51.992;4.198;2022-09-09T12:25:18;3.03;;;1.02;;
38853;SDS011;24606;51.992;4.198;2022-09-09T12:30:28;3.42;;;0.90;;
38853;SDS011;24606;51.992;4.198;2022-09-09T12:35:35;4.28;;;0.93;;
38853;SDS011;24606;51.992;4.198;2022-09-09T12:40:40;1.33;;;0.63;;
38853;SDS011;24606;51.992;4.198;2022-09-09T12:45:42;0.73;;;0.63;;
38853;SDS011;24606;51.992;4.198;2022-09-09T12:50:46;2.33;;;0.60;;
38853;SDS011;24606;51.992;4.198;2022-09-09T12:55:52;3.10;;;0.95;;
38853;SDS011;24606;51.992;4.198;2022-09-09T13:00:58;2.65;;;0.80;;
38853;SDS011;24606;51.992;4.198;2022-09-09T13:06:10;1.80;;;0.60;;
38853;SDS011;24606;51.992;4.198;2022-09-09T13:11:16;5.40;;;0.88;;
38853;SDS011;24606;51.992;4.198;2022-09-09T13:16:23;8.07;;;1.13;;
38853;SDS011;24606;51.992;4.198;2022-09-09T13:21:32;3.50;;;1.13;;
38853;SDS011;24606;51.992;4.198;2022-09-09T13:26:36;2.88;;;0.75;;
38853;SDS011;24606;51.992;4.198;2022-09-09T13:31:38;3.35;;;0.70;;
38853;SDS011;24606;51.992;4.198;2022-09-09T13:36:41;4.10;;;0.88;;
38853;SDS011;24606;51.992;4.198;2022-09-09T13:41:50;4.05;;;0.90;;
38853;SDS011;24606;51.992;4.198;2022-09-09T13:47:02;3.17;;;1.23;;
38853;SDS011;24606;51.992;4.198;2022-09-09T13:52:08;5.72;;;1.17;;
38853;SDS011;24606;51.992;4.198;2022-09-09T13:57:15;2.75;;;0.70;;
38853;SDS011;24606;51.992;4.198;2022-09-09T14:02:18;6.82;;;1.00;;
38853;SDS011;24606;51.992;4.198;2022-09-09T14:07:21;8.68;;;1.45;;
38853;SDS011;24606;51.992;4.198;2022-09-09T14:12:24;5.45;;;0.82;;
38853;SDS011;24606;51.992;4.198;2022-09-09T14:17:26;2.65;;;0.88;;
38853;SDS011;24606;51.992;4.198;2022-09-09T14:22:30;4.80;;;0.88;;
38853;SDS011;24606;51.992;4.198;2022-09-09T14:27:33;10.18;;;1.10;;
38853;SDS011;24606;51.992;4.198;2022-09-09T14:32:34;3.42;;;1.48;;
38853;SDS011;24606;51.992;4.198;2022-09-09T14:37:36;9.05;;;1.70;;
38853;SDS011;24606;51.992;4.198;2022-09-09T14:42:40;9.05;;;1.42;;
38853;SDS011;24606;51.992;4.198;2022-09-09T14:47:42;3.42;;;1.20;;
38853;SDS011;24606;51.992;4.198;2022-09-09T14:52:45;3.55;;;1.13;;
38853;SDS011;24606;51.992;4.198;2022-09-09T14:57:48;7.07;;;1.20;;
38853;SDS011;24606;51.992;4.198;2022-09-09T15:02:51;3.75;;;1.63;;
38853;SDS011;24606;51.992;4.198;2022-09-09T15:07:53;7.28;;;0.90;;
38853;SDS011;24606;51.992;4.198;2022-09-09T15:17:58;3.58;;;0.80;;
38853;SDS011;24606;51.992;4.198;2022-09-09T15:28:03;4.72;;;0.80;;
38853;SDS011;24606;51.992;4.198;2022-09-09T15:33:07;4.28;;;1.10;;
38853;SDS011;24606;51.992;4.198;2022-09-09T15:38:09;5.65;;;1.02;;
38853;SDS011;24606;51.992;4.198;2022-09-09T15:43:14;4.65;;;1.30;;
38853;SDS011;24606;51.992;4.198;2022-09-09T15:48:16;3.55;;;1.08;;
38853;SDS011;24606;51.992;4.198;2022-09-09T15:53:19;9.18;;;1.10;;
38853;SDS011;24606;51.992;4.198;2022-09-09T15:58:22;6.70;;;1.48;;
38853;SDS011;24606;51.992;4.198;2022-09-09T16:03:24;7.38;;;2.55;;
38853;SDS011;24606;51.992;4.198;2022-09-09T16:08:30;8.73;;;2.15;;
38853;SDS011;24606;51.992;4.198;2022-09-09T16:13:35;6.65;;;2.10;;
38853;SDS011;24606;51.992;4.198;2022-09-09T16:18:37;13.13;;;2.65;;
38853;SDS011;24606;51.992;4.198;2022-09-09T16:23:40;6.10;;;2.25;;
38853;SDS011;24606;51.992;4.198;2022-09-09T16:28:44;4.25;;;2.10;;
38853;SDS011;24606;51.992;4.198;2022-09-09T16:33:46;3.75;;;1.55;;
38853;SDS011;24606;51.992;4.198;2022-09-09T16:38:51;5.05;;;1.40;;
38853;SDS011;24606;51.992;4.198;2022-09-09T16:43:56;3.35;;;1.60;;
38853;SDS011;24606;51.992;4.198;2022-09-09T16:49:00;5.70;;;1.80;;
38853;SDS011;24606;51.992;4.198;2022-09-09T16:54:03;5.45;;;1.38;;
38853;SDS011;24606;51.992;4.198;2022-09-09T16:59:10;6.00;;;1.83;;
38853;SDS011;24606;51.992;4.198;2022-09-09T17:04:14;6.47;;;1.67;;
38853;SDS011;24606;51.992;4.198;2022-09-09T17:09:20;7.90;;;1.75;;
38853;SDS011;24606;51.992;4.198;2022-09-09T17:14:25;5.45;;;1.65;;
38853;SDS011;24606;51.992;4.198;2022-09-09T17:19:26;10.23;;;1.80;;
38853;SDS011;24606;51.992;4.198;2022-09-09T17:29:31;6.72;;;1.45;;
38853;SDS011;24606;51.992;4.198;2022-09-09T17:34:35;10.35;;;1.52;;
38853;SDS011;24606;51.992;4.198;2022-09-09T17:39:37;12.07;;;2.17;;
38853;SDS011;24606;51.992;4.198;2022-09-09T17:44:41;12.57;;;2.13;;
38853;SDS011;24606;51.992;4.198;2022-09-09T17:49:43;18.23;;;3.28;;
38853;SDS011;24606;51.992;4.198;2022-09-09T17:54:45;9.48;;;2.20;;
38853;SDS011;24606;51.992;4.198;2022-09-09T18:04:50;12.27;;;1.63;;
38853;SDS011;24606;51.992;4.198;2022-09-09T18:14:55;9.73;;;2.28;;
38853;SDS011;24606;51.992;4.198;2022-09-09T18:19:57;4.65;;;1.17;;
38853;SDS011;24606;51.992;4.198;2022-09-09T18:30:01;6.80;;;1.30;;
38853;SDS011;24606;51.992;4.198;2022-09-09T18:35:04;6.28;;;1.48;;
38853;SDS011;24606;51.992;4.198;2022-09-09T18:40:06;9.60;;;1.48;;
38853;SDS011;24606;51.992;4.198;2022-09-09T18:45:09;7.32;;;1.20;;
38853;SDS011;24606;51.992;4.198;2022-09-09T18:50:11;6.72;;;1.30;;
38853;SDS011;24606;51.992;4.198;2022-09-09T18:55:13;7.82;;;1.48;;
38853;SDS011;24606;51.992;4.198;2022-09-09T19:00:16;5.68;;;1.02;;
38853;SDS011;24606;51.992;4.198;2022-09-09T19:05:18;6.75;;;1.30;;
38853;SDS011;24606;51.992;4.198;2022-09-09T19:10:20;4.43;;;1.35;;
38853;SDS011;24606;51.992;4.198;2022-09-09T19:15:23;8.13;;;1.60;;
38853;SDS011;24606;51.992;4.198;2022-09-09T19:20:25;2.17;;;0.80;;
38853;SDS011;24606;51.992;4.198;2022-09-09T19:25:27;4.40;;;1.38;;
38853;SDS011;24606;51.992;4.198;2022-09-09T19:30:30;3.33;;;1.13;;
38853;SDS011;24606;51.992;4.198;2022-09-09T19:35:34;5.72;;;1.17;;
38853;SDS011;24606;51.992;4.198;2022-09-09T19:45:39;3.45;;;0.75;;
38853;SDS011;24606;51.992;4.198;2022-09-09T19:50:41;3.00;;;0.82;;
38853;SDS011;24606;51.992;4.198;2022-09-09T19:55:43;3.20;;;0.90;;
38853;SDS011;24606;51.992;4.198;2022-09-09T20:05:48;9.52;;;0.90;;
38853;SDS011;24606;51.992;4.198;2022-09-09T20:15:57;13.15;;;1.25;;
38853;SDS011;24606;51.992;4.198;2022-09-09T20:21:00;8.93;;;1.50;;
38853;SDS011;24606;51.992;4.198;2022-09-09T20:26:05;6.93;;;1.45;;
38853;SDS011;24606;51.992;4.198;2022-09-09T20:31:09;5.00;;;1.27;;
38853;SDS011;24606;51.992;4.198;2022-09-09T20:36:13;6.60;;;1.00;;
38853;SDS011;24606;51.992;4.198;2022-09-09T20:41:17;5.50;;;1.48;;
38853;SDS011;24606;51.992;4.198;2022-09-09T20:46:23;6.20;;;1.58;;
38853;SDS011;24606;51.992;4.198;2022-09-09T20:51:27;12.13;;;2.35;;
38853;SDS011;24606;51.992;4.198;2022-09-09T20:56:32;10.07;;;1.55;;
38853;SDS011;24606;51.992;4.198;2022-09-09T21:01:38;5.97;;;1.33;;
38853;SDS011;24606;51.992;4.198;2022-09-09T21:06:40;5.75;;;1.25;;
38853;SDS011;24606;51.992;4.198;2022-09-09T21:16:45;7.23;;;1.53;;
38853;SDS011;24606;51.992;4.198;2022-09-09T21:21:46;4.30;;;1.20;;
38853;SDS011;24606;51.992;4.198;2022-09-09T21:31:51;5.67;;;1.40;;
38853;SDS011;24606;51.992;4.198;2022-09-09T21:36:54;5.15;;;1.40;;
38853;SDS011;24606;51.992;4.198;2022-09-09T21:41:56;4.78;;;1.20;;
38853;SDS011;24606;51.992;4.198;2022-09-09T21:47:01;5.82;;;1.23;;
38853;SDS011;24606;51.992;4.198;2022-09-09T21:52:03;6.97;;;1.27;;
38853;SDS011;24606;51.992;4.198;2022-09-09T22:02:08;3.83;;;0.90;;
38853;SDS011;24606;51.992;4.198;2022-09-09T22:07:11;5.95;;;1.83;;
38853;SDS011;24606;51.992;4.198;2022-09-09T22:12:16;5.15;;;1.25;;
38853;SDS011;24606;51.992;4.198;2022-09-09T22:17:19;7.10;;;1.90;;
38853;SDS011;24606;51.992;4.198;2022-09-09T22:22:23;3.33;;;1.10;;
38853;SDS011;24606;51.992;4.198;2022-09-09T22:27:25;5.28;;;0.93;;
38853;SDS011;24606;51.992;4.198;2022-09-09T22:37:30;4.82;;;1.20;;
38853;SDS011;24606;51.992;4.198;2022-09-09T22:47:35;3.60;;;1.00;;
38853;SDS011;24606;51.992;4.198;2022-09-09T22:52:39;4.90;;;1.23;;
38853;SDS011;24606;51.992;4.198;2022-09-09T23:02:44;4.25;;;1.23;;
38853;SDS011;24606;51.992;4.198;2022-09-09T23:07:48;4.35;;;0.80;;
38853;SDS011;24606;51.992;4.198;2022-09-09T23:12:51;4.15;;;1.00;;
38853;SDS011;24606;51.992;4.198;2022-09-09T23:22:57;3.10;;;0.95;;
38853;SDS011;24606;51.992;4.198;2022-09-09T23:28:00;4.40;;;1.02;;
38853;SDS011;24606;51.992;4.198;2022-09-09T23:33:03;1.45;;;0.90;;
38853;SDS011;24606;51.992;4.198;2022-09-09T23:38:06;4.85;;;1.30;;
38853;SDS011;24606;51.992;4.198;2022-09-09T23:43:09;3.05;;;0.82;;
38853;SDS011;24606;51.992;4.198;2022-09-09T23:48:12;2.60;;;1.00;;
38853;SDS011;24606;51.992;4.198;2022-09-09T23:53:14;4.75;;;0.98;;
38853;SDS011;24606;51.992;4.198;2022-09-09T23:58:17;4.60;;;0.90;;
